createdAt,value
2019-04-06T00:01:33.851Z,15.85
2019-04-06T00:04:00.176Z,16.11
2019-04-06T00:06:26.466Z,15.66
2019-04-06T00:08:52.638Z,16.19
2019-04-06T00:11:18.837Z,15.69
2019-04-06T00:13:45.149Z,15.31
2019-04-06T00:16:11.440Z,15.75
2019-04-06T00:18:37.744Z,15.16
2019-04-06T00:21:03.909Z,15.86
2019-04-06T00:23:30.175Z,16.01
2019-04-06T00:25:56.365Z,15.91
2019-04-06T00:28:22.673Z,15.87
2019-04-06T00:30:56.385Z,15.27
2019-04-06T00:33:27.456Z,15.62
2019-04-06T00:35:53.634Z,16.10
2019-04-06T00:38:19.896Z,16.22
2019-04-06T00:40:46.219Z,16.33
2019-04-06T00:43:12.394Z,16.04
2019-04-06T00:45:38.673Z,16.14
2019-04-06T00:48:04.895Z,16.14
2019-04-06T00:50:31.074Z,16.63
2019-04-06T00:52:57.357Z,16.20
2019-04-06T00:55:23.733Z,16.42
2019-04-06T00:57:50.019Z,16.50
2019-04-06T01:00:16.755Z,16.62
2019-04-06T01:02:43.090Z,16.52
2019-04-06T01:05:09.431Z,16.46
2019-04-06T01:07:35.748Z,16.03
2019-04-06T01:10:01.991Z,15.71
2019-04-06T01:12:28.161Z,15.31
2019-04-06T01:14:55.130Z,15.92
2019-04-06T01:17:21.492Z,15.40
2019-04-06T01:19:47.759Z,16.04
2019-04-06T01:22:13.913Z,16.01
2019-04-06T01:24:40.120Z,16.11
2019-04-06T01:27:06.288Z,15.80
2019-04-06T01:29:32.472Z,15.02
2019-04-06T01:31:58.797Z,15.29
2019-04-06T01:34:25.172Z,15.20
2019-04-06T01:36:51.464Z,15.80
2019-04-06T01:39:17.680Z,15.86
2019-04-06T01:41:43.970Z,16.20
2019-04-06T01:44:10.254Z,16.36
2019-04-06T01:46:36.468Z,16.36
2019-04-06T01:49:02.744Z,15.76
2019-04-06T01:51:28.911Z,15.94
2019-04-06T01:53:55.103Z,15.59
2019-04-06T01:56:21.397Z,16.09
2019-04-06T01:58:47.572Z,16.28
2019-04-06T02:01:15.669Z,16.48
2019-04-06T02:03:41.850Z,16.04
2019-04-06T02:06:08.135Z,15.85
2019-04-06T02:08:34.432Z,15.84
2019-04-06T02:11:00.618Z,16.12
2019-04-06T02:13:26.898Z,15.73
2019-04-06T02:15:53.354Z,15.56
2019-04-06T02:18:19.699Z,15.75
2019-04-06T02:20:45.920Z,15.90
2019-04-06T02:23:12.184Z,15.62
2019-04-06T02:25:39.175Z,15.59
2019-04-06T02:28:05.764Z,15.31
2019-04-06T02:30:36.787Z,14.92
2019-04-06T02:33:21.242Z,15.29
2019-04-06T02:35:49.369Z,15.31
2019-04-06T02:38:35.857Z,15.75
2019-04-06T02:41:06.769Z,15.27
2019-04-06T02:43:34.986Z,14.77
2019-04-06T02:46:01.254Z,15.29
2019-04-06T02:48:27.647Z,15.43
2019-04-06T02:50:53.824Z,15.13
2019-04-06T02:53:20.025Z,15.29
2019-04-06T02:55:46.304Z,14.46
2019-04-06T02:58:12.490Z,14.72
2019-04-06T03:00:38.694Z,14.73
2019-04-06T03:03:04.866Z,15.13
2019-04-06T03:05:31.028Z,15.27
2019-04-06T03:07:57.208Z,14.63
2019-04-06T03:10:23.428Z,15.26
2019-04-06T03:12:49.700Z,14.81
2019-04-06T03:15:15.877Z,15.58
2019-04-06T03:17:42.403Z,15.37
2019-04-06T03:20:08.980Z,15.31
2019-04-06T03:22:35.325Z,15.61
2019-04-06T03:25:01.559Z,15.43
2019-04-06T03:27:27.698Z,15.55
2019-04-06T03:29:58.347Z,14.70
2019-04-06T03:32:22.017Z,15.36
2019-04-06T03:34:48.195Z,15.17
2019-04-06T03:37:14.373Z,15.42
2019-04-06T03:39:40.567Z,14.94
2019-04-06T03:42:10.356Z,15.16
2019-04-06T03:44:35.113Z,15.46
2019-04-06T03:47:01.328Z,14.75
2019-04-06T03:49:27.528Z,14.15
2019-04-06T03:51:53.648Z,14.89
2019-04-06T03:54:19.981Z,14.73
2019-04-06T03:56:46.398Z,14.30
2019-04-06T03:59:12.714Z,14.37
2019-04-06T04:01:38.912Z,14.47
2019-04-06T04:04:05.082Z,14.89
2019-04-06T04:06:31.353Z,14.44
2019-04-06T04:08:57.566Z,15.42
2019-04-06T04:11:24.023Z,15.10
2019-04-06T04:13:50.224Z,15.09
2019-04-06T04:16:16.444Z,14.65
2019-04-06T04:18:42.938Z,14.90
2019-04-06T04:21:09.109Z,16.53
2019-04-06T04:23:35.420Z,16.74
2019-04-06T04:26:01.707Z,17.50
2019-04-06T04:28:27.857Z,18.78
2019-04-06T04:30:54.218Z,18.69
2019-04-06T04:33:20.441Z,19.03
2019-04-06T04:35:46.786Z,19.49
2019-04-06T04:38:13.211Z,18.53
2019-04-06T04:40:39.370Z,19.67
2019-04-06T04:43:05.673Z,18.88
2019-04-06T04:45:31.874Z,17.80
2019-04-06T04:47:58.082Z,17.63
2019-04-06T04:50:24.382Z,17.22
2019-04-06T04:52:50.590Z,17.95
2019-04-06T04:55:16.770Z,20.26
2019-04-06T04:57:45.091Z,21.80
2019-04-06T05:00:11.782Z,22.88
2019-04-06T05:02:38.016Z,23.72
2019-04-06T05:05:05.383Z,22.40
2019-04-06T05:07:31.586Z,22.96
2019-04-06T05:09:57.760Z,24.04
2019-04-06T05:12:23.937Z,24.38
2019-04-06T05:15:03.482Z,22.05
2019-04-06T05:17:30.062Z,21.15
2019-04-06T05:19:56.446Z,22.43
2019-04-06T05:22:22.767Z,20.95
2019-04-06T05:24:48.929Z,21.21
2019-04-06T05:27:15.223Z,20.72
2019-04-06T05:29:41.530Z,22.43
2019-04-06T05:32:07.693Z,24.01
2019-04-06T05:34:33.862Z,24.29
2019-04-06T05:37:00.199Z,24.09
2019-04-06T05:39:26.490Z,24.34
2019-04-06T05:41:52.747Z,23.82
2019-04-06T05:44:18.935Z,24.84
2019-04-06T05:46:45.284Z,24.68
2019-04-06T05:49:11.518Z,23.34
2019-04-06T05:51:37.850Z,23.22
2019-04-06T05:54:04.038Z,24.67
2019-04-06T05:56:30.325Z,23.55
2019-04-06T05:58:59.843Z,24.88
2019-04-06T06:01:26.109Z,23.72
2019-04-06T06:03:52.398Z,25.10
2019-04-06T06:06:18.581Z,25.12
2019-04-06T06:08:44.755Z,24.41
2019-04-06T06:11:11.031Z,24.36
2019-04-06T06:13:39.167Z,24.99
2019-04-06T06:16:05.427Z,25.40
2019-04-06T06:18:32.471Z,24.04
2019-04-06T06:20:58.740Z,24.13
2019-04-06T06:23:24.917Z,22.88
2019-04-06T06:25:51.263Z,23.03
2019-04-06T06:28:19.412Z,22.33
2019-04-06T06:30:45.590Z,22.44
2019-04-06T06:33:11.784Z,21.55
2019-04-06T06:35:38.113Z,22.02
2019-04-06T06:38:05.233Z,22.99
2019-04-06T06:40:31.407Z,21.43
2019-04-06T06:42:57.717Z,23.22
2019-04-06T06:45:23.884Z,23.38
2019-04-06T06:47:53.041Z,23.93
2019-04-06T06:50:19.262Z,23.03
2019-04-06T06:52:45.571Z,22.15
2019-04-06T06:55:11.904Z,23.57
2019-04-06T06:57:38.221Z,23.39
2019-04-06T07:00:05.305Z,23.18
2019-04-06T07:02:31.564Z,23.30
2019-04-06T07:04:57.758Z,24.85
2019-04-06T07:07:23.938Z,25.90
2019-04-06T07:09:50.187Z,26.47
2019-04-06T07:12:16.439Z,26.33
2019-04-06T07:14:42.594Z,24.77
2019-04-06T07:17:08.904Z,24.73
2019-04-06T07:19:35.096Z,24.67
2019-04-06T07:22:01.641Z,24.04
2019-04-06T07:24:27.846Z,25.40
2019-04-06T07:26:54.224Z,24.78
2019-04-06T07:29:20.438Z,25.25
2019-04-06T07:31:46.615Z,25.27
2019-04-06T07:34:12.835Z,25.88
2019-04-06T07:36:39.126Z,25.89
2019-04-06T07:39:05.285Z,25.91
2019-04-06T07:41:31.490Z,24.90
2019-04-06T07:43:57.662Z,24.93
2019-04-06T07:46:23.860Z,25.66
2019-04-06T07:48:50.128Z,24.94
2019-04-06T07:51:16.411Z,25.40
2019-04-06T07:53:42.667Z,26.18
2019-04-06T07:56:08.880Z,26.36
2019-04-06T07:58:35.166Z,26.13
2019-04-06T08:01:01.484Z,26.58
2019-04-06T08:03:27.660Z,26.39
2019-04-06T08:05:53.935Z,26.86
2019-04-06T08:08:20.114Z,26.07
2019-04-06T08:10:47.128Z,27.00
2019-04-06T08:13:13.292Z,28.77
2019-04-06T08:15:39.573Z,29.32
2019-04-06T08:18:05.803Z,29.07
2019-04-06T08:20:31.938Z,28.23
2019-04-06T08:22:58.336Z,27.35
2019-04-06T08:25:24.553Z,26.29
2019-04-06T08:27:50.734Z,26.33
2019-04-06T08:30:16.993Z,27.01
2019-04-06T08:32:43.309Z,26.55
2019-04-06T08:35:10.083Z,27.61
2019-04-06T08:37:36.515Z,26.77
2019-04-06T08:40:05.367Z,27.13
2019-04-06T08:42:31.859Z,28.21
2019-04-06T08:44:58.220Z,27.67
2019-04-06T08:47:24.544Z,29.15
2019-04-06T08:49:50.829Z,29.83
2019-04-06T08:52:16.989Z,29.61
2019-04-06T08:54:43.207Z,28.95
2019-04-06T08:57:09.509Z,29.60
2019-04-06T08:59:35.817Z,30.07
2019-04-06T09:02:02.196Z,30.98
2019-04-06T09:04:28.464Z,30.36
2019-04-06T09:06:54.751Z,28.63
2019-04-06T09:09:20.926Z,27.94
2019-04-06T09:11:47.240Z,28.30
2019-04-06T09:14:13.488Z,28.29
2019-04-06T09:16:39.739Z,28.12
2019-04-06T09:19:06.148Z,28.83
2019-04-06T09:21:32.471Z,28.61
2019-04-06T09:23:59.300Z,28.83
2019-04-06T09:26:25.872Z,29.96
2019-04-06T09:28:52.137Z,30.13
2019-04-06T09:31:18.387Z,30.11
2019-04-06T09:33:44.645Z,29.49
2019-04-06T09:36:10.965Z,29.96
2019-04-06T09:38:37.159Z,29.44
2019-04-06T09:41:03.459Z,28.67
2019-04-06T09:43:30.536Z,27.97
2019-04-06T09:46:15.669Z,29.85
2019-04-06T09:49:00.381Z,31.39
2019-04-06T09:51:31.660Z,31.61
2019-04-06T09:54:06.663Z,31.47
2019-04-06T09:56:49.645Z,29.50
2019-04-06T09:59:17.730Z,29.03
2019-04-06T10:01:54.826Z,31.11
2019-04-06T10:04:39.674Z,31.02
2019-04-06T10:07:07.954Z,29.58
2019-04-06T10:09:50.886Z,28.66
2019-04-06T10:12:34.531Z,29.71
2019-04-06T10:15:05.418Z,30.93
2019-04-06T10:17:39.256Z,30.90
2019-04-06T10:20:14.784Z,30.67
2019-04-06T10:22:49.344Z,31.26
2019-04-06T10:25:34.400Z,30.19
2019-04-06T10:28:08.581Z,30.16
2019-04-06T10:30:36.646Z,31.36
2019-04-06T10:33:07.543Z,32.06
2019-04-06T10:35:44.945Z,31.93
2019-04-06T10:38:25.105Z,33.24
2019-04-06T10:40:59.254Z,31.57
2019-04-06T10:43:30.378Z,33.05
2019-04-06T10:46:01.371Z,33.91
2019-04-06T10:48:29.509Z,33.86
2019-04-06T10:51:03.903Z,32.46
2019-04-06T10:53:31.942Z,32.22
2019-04-06T10:56:02.916Z,30.80
2019-04-06T10:58:47.318Z,31.95
2019-04-06T11:01:30.351Z,32.76
2019-04-06T11:04:00.969Z,33.77
2019-04-06T11:06:46.893Z,33.87
2019-04-06T11:09:17.928Z,33.55
2019-04-06T11:11:46.047Z,32.31
2019-04-06T11:14:14.211Z,30.98
2019-04-06T11:16:48.361Z,31.91
2019-04-06T11:19:33.021Z,33.41
2019-04-06T11:24:53.728Z,33.86
2019-04-06T11:27:39.121Z,32.55
2019-04-06T11:30:13.583Z,32.89
2019-04-06T11:32:41.640Z,32.52
2019-04-06T11:35:15.502Z,32.22
2019-04-06T11:38:00.211Z,31.52
2019-04-06T11:40:30.789Z,32.72
2019-04-06T11:43:04.518Z,31.31
2019-04-06T11:45:32.704Z,31.87
2019-04-06T11:48:17.314Z,32.11
2019-04-06T11:51:01.741Z,32.87
2019-04-06T11:53:29.871Z,32.83
2019-04-06T11:55:58.049Z,33.20
2019-04-06T11:58:32.081Z,34.05
2019-04-06T12:01:01.286Z,33.38
2019-04-06T12:03:46.462Z,32.44
2019-04-06T12:06:14.538Z,31.66
2019-04-06T12:08:42.798Z,33.28
2019-04-06T12:11:13.444Z,32.75
2019-04-06T12:13:41.535Z,31.92
2019-04-06T12:16:25.901Z,31.11
2019-04-06T12:18:59.539Z,31.62
2019-04-06T12:24:19.427Z,31.90
2019-04-06T12:26:53.306Z,31.47
2019-04-06T12:29:33.234Z,31.98
2019-04-06T12:32:01.770Z,32.27
2019-04-06T12:37:26.095Z,33.70
2019-04-06T12:39:54.763Z,32.46
2019-04-06T12:42:23.053Z,30.67
2019-04-06T12:44:54.191Z,30.43
2019-04-06T12:47:25.363Z,31.07
2019-04-06T12:50:09.784Z,31.45
2019-04-06T12:55:47.688Z,31.74
2019-04-06T12:58:15.768Z,31.16
2019-04-06T13:00:56.057Z,30.88
2019-04-06T13:03:24.188Z,31.26
2019-04-06T13:08:55.157Z,32.08
2019-04-06T13:11:39.896Z,33.34
2019-04-06T13:14:10.947Z,32.29
2019-04-06T13:16:39.111Z,32.47
2019-04-06T13:19:23.528Z,32.46
2019-04-06T13:21:51.679Z,32.75
2019-04-06T13:24:29.009Z,32.87
2019-04-06T13:27:08.941Z,32.75
2019-04-06T13:29:40.196Z,31.63
2019-04-06T13:32:08.242Z,31.10
2019-04-06T13:34:36.322Z,30.56
2019-04-06T13:37:19.503Z,30.44
2019-04-06T13:39:47.578Z,31.34
2019-04-06T13:42:24.544Z,31.63
2019-04-06T13:44:52.578Z,31.64
2019-04-06T13:47:32.503Z,30.77
2019-04-06T13:50:06.646Z,29.69
2019-04-06T13:52:51.686Z,29.24
2019-04-06T13:55:28.491Z,30.15
2019-04-06T13:58:08.632Z,31.17
2019-04-06T14:00:51.909Z,29.97
2019-04-06T14:03:36.617Z,29.95
2019-04-06T14:06:10.530Z,29.39
2019-04-06T14:08:38.659Z,29.30
2019-04-06T14:11:12.543Z,30.61
2019-04-06T14:13:46.587Z,30.06
2019-04-06T14:16:17.320Z,28.30
2019-04-06T14:18:45.454Z,29.04
2019-04-06T14:21:16.565Z,28.89
2019-04-06T14:23:44.647Z,28.74
2019-04-06T14:26:21.886Z,28.93
2019-04-06T14:28:52.914Z,27.72
2019-04-06T14:31:29.873Z,29.02
2019-04-06T14:34:12.491Z,28.70
2019-04-06T14:36:46.394Z,28.29
2019-04-06T14:39:26.182Z,27.60
2019-04-06T14:42:02.845Z,28.66
2019-04-06T14:47:38.228Z,29.43
2019-04-06T14:50:23.059Z,29.66
2019-04-06T14:53:08.237Z,28.61
2019-04-06T14:55:54.552Z,27.89
2019-04-06T14:58:28.611Z,27.67
2019-04-06T15:01:05.526Z,28.01
2019-04-06T15:03:45.790Z,28.84
2019-04-06T15:06:13.869Z,27.79
2019-04-06T15:08:53.962Z,27.27
2019-04-06T15:11:28.117Z,28.15
2019-04-06T15:14:05.033Z,27.33
2019-04-06T15:16:33.463Z,27.52
2019-04-06T15:19:04.892Z,28.89
2019-04-06T15:21:49.269Z,28.16
2019-04-06T15:24:29.225Z,27.38
2019-04-06T15:27:03.330Z,27.59
2019-04-06T15:29:31.428Z,27.50
2019-04-06T15:32:03.440Z,27.85
2019-04-06T15:34:48.284Z,27.10
2019-04-06T15:37:16.399Z,27.34
2019-04-06T15:42:40.363Z,28.14
2019-04-06T15:45:08.645Z,28.58
2019-04-06T15:47:39.785Z,28.45
2019-04-06T15:50:11.417Z,27.87
2019-04-06T15:52:39.912Z,26.73
2019-04-06T15:55:08.840Z,27.30
2019-04-06T15:57:37.011Z,27.25
2019-04-06T16:00:08.717Z,28.21
2019-04-06T16:02:53.396Z,27.29
2019-04-06T16:05:30.337Z,27.37
2019-04-06T16:08:13.580Z,27.21
2019-04-06T16:13:32.185Z,28.00
2019-04-06T16:16:09.275Z,27.81
2019-04-06T16:18:37.445Z,27.19
2019-04-06T16:21:08.405Z,27.50
2019-04-06T16:23:48.518Z,27.99
2019-04-06T16:26:19.755Z,27.11
2019-04-06T16:29:04.999Z,25.87
2019-04-06T16:31:35.583Z,24.97
2019-04-06T16:34:20.818Z,26.74
2019-04-06T16:36:49.008Z,26.52
2019-04-06T16:39:33.487Z,26.87
2019-04-06T16:42:01.861Z,26.52
2019-04-06T16:44:30.444Z,25.60
2019-04-06T16:46:58.556Z,25.15
2019-04-06T16:49:35.826Z,24.90
2019-04-06T16:52:12.935Z,25.82
2019-04-06T16:54:41.222Z,26.41
2019-04-06T16:57:26.522Z,25.26
2019-04-06T17:00:00.511Z,26.14
2019-04-06T17:02:45.626Z,25.98
2019-04-06T17:05:23.121Z,25.04
2019-04-06T17:08:11.167Z,25.74
2019-04-06T17:10:38.946Z,26.10
2019-04-06T17:13:09.749Z,26.21
2019-04-06T17:15:41.076Z,25.00
2019-04-06T17:18:12.129Z,24.91
2019-04-06T17:20:48.839Z,25.86
2019-04-06T17:23:16.957Z,25.79
2019-04-06T17:25:49.558Z,25.93
2019-04-06T17:28:34.092Z,25.45
2019-04-06T17:31:17.358Z,24.56
2019-04-06T17:33:57.728Z,25.16
2019-04-06T17:36:42.328Z,25.36
2019-04-06T17:39:10.469Z,24.64
2019-04-06T17:44:46.053Z,25.01
2019-04-06T17:47:19.837Z,24.69
2019-04-06T17:50:03.190Z,24.99
2019-04-06T17:52:37.075Z,24.25
2019-04-06T17:55:15.627Z,24.71
2019-04-06T17:57:43.811Z,24.51
2019-04-06T18:00:15.305Z,24.38
2019-04-06T18:02:59.733Z,24.74
2019-04-06T18:05:28.200Z,24.94
2019-04-06T18:08:05.955Z,23.71
2019-04-06T18:10:52.795Z,24.40
2019-04-06T18:13:23.793Z,24.48
2019-04-06T18:15:49.951Z,24.04
2019-04-06T18:18:16.328Z,24.44
2019-04-06T18:20:42.623Z,23.13
2019-04-06T18:23:08.796Z,24.03
2019-04-06T18:25:34.959Z,24.44
2019-04-06T18:28:01.583Z,23.89
2019-04-06T18:30:27.952Z,23.88
2019-04-06T18:33:03.666Z,23.42
2019-04-06T18:35:30.012Z,23.86
2019-04-06T18:37:58.105Z,24.05
2019-04-06T18:40:26.327Z,23.60
2019-04-06T18:42:53.172Z,23.36
2019-04-06T18:45:19.472Z,23.49
2019-04-06T18:47:46.224Z,23.95
2019-04-06T18:50:12.932Z,22.96
2019-04-06T18:52:39.166Z,24.08
2019-04-06T18:55:05.543Z,24.67
2019-04-06T18:57:32.193Z,24.33
2019-04-06T18:59:58.528Z,24.32
2019-04-06T19:02:24.826Z,24.06
2019-04-06T19:04:51.020Z,24.08
2019-04-06T19:07:17.566Z,23.12
2019-04-06T19:09:44.137Z,23.68
2019-04-06T19:12:10.723Z,24.40
2019-04-06T19:14:37.220Z,24.12
2019-04-06T19:17:03.687Z,22.76
2019-04-06T19:19:29.880Z,23.41
2019-04-06T19:21:56.062Z,22.97
2019-04-06T19:24:22.353Z,23.62
2019-04-06T19:26:48.899Z,23.55
2019-04-06T19:29:15.336Z,23.37
2019-04-06T19:31:41.490Z,23.29
2019-04-06T19:34:07.821Z,23.46
2019-04-06T19:36:34.066Z,23.61
2019-04-06T19:39:00.621Z,23.65
2019-04-06T19:41:27.151Z,23.68
2019-04-06T19:43:53.585Z,23.54
2019-04-06T19:46:20.219Z,23.43
2019-04-06T19:48:47.008Z,22.89
2019-04-06T19:51:13.441Z,23.00
2019-04-06T19:53:40.041Z,23.72
2019-04-06T19:56:06.533Z,24.07
2019-04-06T19:58:32.746Z,24.34
2019-04-06T20:00:59.020Z,24.14
2019-04-06T20:03:34.114Z,23.25
2019-04-06T20:05:53.306Z,22.22
2019-04-06T20:08:19.503Z,22.91
2019-04-06T20:10:45.719Z,22.45
2019-04-06T20:13:12.118Z,23.07
2019-04-06T20:15:38.828Z,23.49
2019-04-06T20:18:05.421Z,23.51
2019-04-06T20:20:31.583Z,23.21
2019-04-06T20:22:58.111Z,22.40
2019-04-06T20:25:25.214Z,22.93
2019-04-06T20:27:52.163Z,22.01
2019-04-06T20:30:18.853Z,22.06
2019-04-06T20:32:45.161Z,21.24
2019-04-06T20:35:12.645Z,21.65
2019-04-06T20:37:38.833Z,21.87
2019-04-06T20:40:06.372Z,21.76
2019-04-06T20:42:32.576Z,22.46
2019-04-06T20:44:59.148Z,22.95
2019-04-06T20:47:25.549Z,23.28
2019-04-06T20:49:51.824Z,23.43
2019-04-06T20:52:18.318Z,23.33
2019-04-06T20:54:44.512Z,22.68
2019-04-06T20:57:10.933Z,22.41
2019-04-06T20:59:37.252Z,22.39
2019-04-06T21:02:03.778Z,22.75
2019-04-06T21:04:29.947Z,22.14
2019-04-06T21:06:56.138Z,22.25
2019-04-06T21:09:22.458Z,22.33
2019-04-06T21:11:49.045Z,22.44
2019-04-06T21:14:15.828Z,21.64
2019-04-06T21:16:42.144Z,21.85
2019-04-06T21:19:08.318Z,21.36
2019-04-06T21:21:35.247Z,22.10
2019-04-06T21:24:01.635Z,21.91
2019-04-06T21:26:27.832Z,21.21
2019-04-06T21:28:53.990Z,21.23
2019-04-06T21:31:20.179Z,21.87
2019-04-06T21:33:46.761Z,21.53
2019-04-06T21:36:13.426Z,21.42
2019-04-06T21:38:40.068Z,21.40
2019-04-06T21:41:06.973Z,21.23
2019-04-06T21:43:33.408Z,21.51
2019-04-06T21:46:00.078Z,21.11
2019-04-06T21:48:27.009Z,21.30
2019-04-06T21:50:53.305Z,21.71
2019-04-06T21:53:19.742Z,21.62
2019-04-06T21:55:45.978Z,21.29
2019-04-06T21:58:12.239Z,21.24
2019-04-06T22:00:49.854Z,21.55
2019-04-06T22:03:16.676Z,21.49
2019-04-06T22:05:53.967Z,21.51
2019-04-06T22:08:23.269Z,21.74
2019-04-06T22:10:50.029Z,21.18
2019-04-06T22:13:16.368Z,21.35
2019-04-06T22:15:42.588Z,21.58
2019-04-06T22:18:08.853Z,20.74
2019-04-06T22:20:35.575Z,20.90
2019-04-06T22:23:01.932Z,21.14
2019-04-06T22:25:28.122Z,21.24
2019-04-06T22:27:54.280Z,21.34
2019-04-06T22:30:20.609Z,21.66
2019-04-06T22:32:46.914Z,22.09
2019-04-06T22:35:13.526Z,21.72
2019-04-06T22:37:40.619Z,21.53
2019-04-06T22:40:07.502Z,22.28
2019-04-06T22:42:34.262Z,22.53
2019-04-06T22:45:01.372Z,22.73
2019-04-06T22:47:27.691Z,22.94
2019-04-06T22:49:53.871Z,23.09
2019-04-06T22:52:20.512Z,23.22
2019-04-06T22:54:46.814Z,23.43
2019-04-06T22:57:13.503Z,23.11
2019-04-06T22:59:40.403Z,22.18
2019-04-06T23:02:06.750Z,22.25
2019-04-06T23:04:45.739Z,22.01
2019-04-06T23:07:05.702Z,22.53
2019-04-06T23:09:32.461Z,22.13
2019-04-06T23:11:58.772Z,22.31
2019-04-06T23:14:24.964Z,21.53
2019-04-06T23:16:51.236Z,21.65
2019-04-06T23:19:17.577Z,20.96
2019-04-06T23:21:44.119Z,21.26
2019-04-06T23:24:11.042Z,21.82
2019-04-06T23:26:38.099Z,21.39
2019-04-06T23:29:05.160Z,22.07
2019-04-06T23:31:31.511Z,22.21
2019-04-06T23:33:57.662Z,22.29
2019-04-06T23:36:23.883Z,22.33
2019-04-06T23:38:50.207Z,21.43
2019-04-06T23:41:16.430Z,21.29
2019-04-06T23:43:42.816Z,21.37
2019-04-06T23:46:09.024Z,21.66
2019-04-06T23:48:39.155Z,21.74
2019-04-06T23:51:05.489Z,21.92
2019-04-06T23:53:31.711Z,21.79
2019-04-06T23:55:58.615Z,21.44
2019-04-06T23:58:24.912Z,21.77
